»·PEaware :: N13C KSNA-KCRQ

N13C :: KSNA-KCRQ

FLIGHT INFORMATION

Flight Status: Arrived
Operator: Privately registered:
United States
More flights under this callsign
Pilot: Alec D. (17934)
Aircraft: BEECH AIRCRAFT BONANZA
(BE35)
More flights by this aircraft type
Origin: KSNA John Wayne-Orange Co
United States
Destination: KCRQ McClellan-Palomar
United States
More flights between these airports :: More routes between these airports
Route: V23 OCN
File this flight plan on PilotEdge
Remarks:
Altitude:
(Current/Filed)
5,000ft
Speed:
(Current/Filed)
160kts
Departed: 23-Apr-20 04:02 PM
Arrived: 23-Apr-20 04:25 PM
Distance/Time
Traveled:
44nm/0:23
Distance/Time
To Go:
Arrived

Flight Plot

Page will automatically refresh every two minutes.


Map Options




Map Legend


Flown Route
Filed Route
Departure Airport
Arrival Airport
Navaid (VOR, NDB)
Fix

Horizontal Profiles

Position Reports

Time Latitude Longitude Heading Altitude Ground
Speed
23-Apr-20 15:39 33.666435 -117.873047 219 59ft 0kts
23-Apr-20 15:40 33.666435 -117.873047 219 59ft 0kts
23-Apr-20 15:41 33.666435 -117.873047 219 59ft 0kts
23-Apr-20 15:41 33.666435 -117.873047 219 59ft 0kts
23-Apr-20 15:43 33.666432 -117.873050 219 59ft 0kts
23-Apr-20 15:44 33.666427 -117.873054 219 59ft 0kts
23-Apr-20 15:44 33.666424 -117.873058 219 59ft 0kts
23-Apr-20 15:45 33.666420 -117.873062 219 59ft 0kts
23-Apr-20 15:47 33.666416 -117.873066 219 59ft 0kts
23-Apr-20 15:48 33.666412 -117.873069 219 59ft 0kts
23-Apr-20 15:48 33.666409 -117.873072 219 59ft 0kts
23-Apr-20 15:49 33.666393 -117.873088 219 59ft 1kts
23-Apr-20 15:50 33.668180 -117.872094 37 59ft 18kts
23-Apr-20 15:51 33.671675 -117.868767 42 59ft 16kts
23-Apr-20 15:52 33.673938 -117.867102 25 59ft 4kts
23-Apr-20 15:53 33.677533 -117.864966 27 59ft 18kts
23-Apr-20 15:54 33.679717 -117.863828 333 59ft 0kts
23-Apr-20 15:55 33.679729 -117.863835 333 59ft 0kts
23-Apr-20 15:56 33.679734 -117.863838 333 59ft 0kts
23-Apr-20 15:57 33.679740 -117.863841 333 59ft 0kts
23-Apr-20 15:58 33.679746 -117.863845 333 59ft 0kts
23-Apr-20 15:59 33.679751 -117.863848 333 59ft 0kts
23-Apr-20 16:00 33.679868 -117.864328 210 59ft 7kts
23-Apr-20 16:01 33.668510 -117.872213 211 306ft 91kts
23-Apr-20 16:02 33.643522 -117.879269 189 1299ft 96kts
23-Apr-20 16:03 33.616415 -117.884462 187 2202ft 99kts
23-Apr-20 16:04 33.588228 -117.889449 188 3077ft 106kts
23-Apr-20 16:05 33.558790 -117.895033 188 3976ft 108kts
23-Apr-20 16:06 33.536405 -117.882324 115 4803ft 106kts
23-Apr-20 16:07 33.521957 -117.843876 111 5007ft 143kts
23-Apr-20 16:08 33.505468 -117.798578 112 5010ft 152kts
23-Apr-20 16:09 33.488216 -117.751099 112 5001ft 157kts
23-Apr-20 16:10 33.471065 -117.702468 112 5000ft 162kts
23-Apr-20 16:11 33.446109 -117.657972 134 5004ft 161kts
23-Apr-20 16:12 33.414385 -117.620377 135 5007ft 160kts
23-Apr-20 16:13 33.382424 -117.582964 135 5003ft 161kts
23-Apr-20 16:14 33.350465 -117.545648 135 5008ft 156kts
23-Apr-20 16:15 33.320151 -117.510280 135 4936ft 153kts
23-Apr-20 16:16 33.287665 -117.472427 136 4180ft 168kts
23-Apr-20 16:17 33.256392 -117.436009 136 4010ft 143kts
23-Apr-20 16:18 33.228859 -117.403319 134 4010ft 137kts
23-Apr-20 16:19 33.198562 -117.367698 135 3259ft 162kts
23-Apr-20 16:20 33.168171 -117.330218 134 2387ft 159kts
23-Apr-20 16:21 33.141641 -117.288948 87 1378ft 152kts
23-Apr-20 16:22 33.137122 -117.251629 169 1058ft 99kts
23-Apr-20 16:23 33.129128 -117.274635 259 341ft 70kts
23-Apr-20 16:24 33.127659 -117.280401 220 334ft 0kts
23-Apr-20 16:25 33.127127 -117.280830 125 334ft 3kts
23-Apr-20 16:26 33.126778 -117.278898 258 334ft 0kts
23-Apr-20 16:27 33.126778 -117.278900 258 334ft 0kts
23-Apr-20 16:28 33.126778 -117.278900 258 334ft 0kts
23-Apr-20 16:29 33.126778 -117.278900 258 334ft 0kts
23-Apr-20 16:30 33.126778 -117.278900 258 334ft 0kts
23-Apr-20 16:31 33.126778 -117.278900 258 334ft 0kts
23-Apr-20 16:32 33.126778 -117.278900 258 334ft 0kts
23-Apr-20 16:33 33.126778 -117.278900 258 334ft 0kts
23-Apr-20 16:34 33.126778 -117.278900 258 334ft 0kts
23-Apr-20 16:35 33.126778 -117.278900 258 334ft 0kts
23-Apr-20 16:36 33.126778 -117.278900 258 334ft 0kts
23-Apr-20 16:37 33.126778 -117.278900 258 334ft 0kts
23-Apr-20 16:38 33.126778 -117.278900 258 334ft 0kts
23-Apr-20 16:39 33.126777 -117.278903 258 334ft 0kts

Navigation Log

Ident Type
Flight plan parsing failed, navigation log unavailable